»·PEaware :: N351SS KSNA-KAVX

N351SS :: KSNA-KAVX

FLIGHT INFORMATION

Flight Status: Arrived
Operator: Privately registered:
United States
More flights under this callsign
Pilot: Reuben K. (13591)
Aircraft: CESSNA 206 STATIONAIR
(C206)
More flights by this aircraft type
Origin: KSNA John Wayne-Orange Co
United States
Destination: KAVX Catalina
United States
More flights between these airports :: More routes between these airports
Route: +SLI V21 SXC
File this flight plan on PilotEdge
Remarks:
Altitude:
(Current/Filed)
4,000ft
Speed:
(Current/Filed)
140kts
Departed: 13-Feb-20 08:08 PM
Arrived: 13-Feb-20 08:23 PM
Distance/Time
Traveled:
32nm/0:15
Distance/Time
To Go:
Arrived

Flight Plot

Page will automatically refresh every two minutes.


Map Options




Map Legend


Flown Route
Filed Route
Departure Airport
Arrival Airport
Navaid (VOR, NDB)
Fix

Horizontal Profiles

Position Reports

Time Latitude Longitude Heading Altitude Ground
Speed
13-Feb-20 19:34 33.675605 -117.871311 221 60ft 0kts
13-Feb-20 19:35 33.675605 -117.871311 221 60ft 0kts
13-Feb-20 19:36 33.675605 -117.871311 221 60ft 0kts
13-Feb-20 19:37 33.675605 -117.871311 221 60ft 0kts
13-Feb-20 19:38 33.675605 -117.871311 221 60ft 0kts
13-Feb-20 19:39 33.675605 -117.871311 221 60ft 0kts
13-Feb-20 19:40 33.675605 -117.871311 221 60ft 0kts
13-Feb-20 19:41 33.675605 -117.871311 221 60ft 0kts
13-Feb-20 19:42 33.675605 -117.871311 221 60ft 0kts
13-Feb-20 19:43 33.675605 -117.871311 221 60ft 0kts
13-Feb-20 19:44 33.675605 -117.871311 221 60ft 0kts
13-Feb-20 19:45 33.675605 -117.871311 221 60ft 0kts
13-Feb-20 19:46 33.675605 -117.871311 221 60ft 0kts
13-Feb-20 19:47 33.675605 -117.871311 221 60ft 0kts
13-Feb-20 19:48 33.675605 -117.871311 221 60ft 0kts
13-Feb-20 19:49 33.675605 -117.871311 221 60ft 0kts
13-Feb-20 19:50 33.675605 -117.871311 221 60ft 0kts
13-Feb-20 19:51 33.675605 -117.871311 221 60ft 0kts
13-Feb-20 19:52 33.675605 -117.871311 221 60ft 0kts
13-Feb-20 19:53 33.675605 -117.871311 221 60ft 0kts
13-Feb-20 19:54 33.675605 -117.871311 221 60ft 0kts
13-Feb-20 19:55 33.675605 -117.871311 221 60ft 0kts
13-Feb-20 19:56 33.675605 -117.871311 221 60ft 0kts
13-Feb-20 19:57 33.675425 -117.871193 130 60ft 0kts
13-Feb-20 19:58 33.675425 -117.871193 130 60ft 0kts
13-Feb-20 19:59 33.675423 -117.871190 129 60ft 0kts
13-Feb-20 20:00 33.675423 -117.871190 129 60ft 0kts
13-Feb-20 20:01 33.675423 -117.871190 129 60ft 0kts
13-Feb-20 20:02 33.676378 -117.870364 31 60ft 9kts
13-Feb-20 20:03 33.680269 -117.867560 28 60ft 17kts
13-Feb-20 20:04 33.681240 -117.866490 118 60ft 0kts
13-Feb-20 20:05 33.681240 -117.866490 118 60ft 0kts
13-Feb-20 20:06 33.681240 -117.866490 118 60ft 0kts
13-Feb-20 20:07 33.669728 -117.872505 203 443ft 103kts
13-Feb-20 20:08 33.649511 -117.898512 232 1666ft 133kts
13-Feb-20 20:09 33.623465 -117.938801 232 2109ft 154kts
13-Feb-20 20:10 33.597400 -117.979936 242 2928ft 149kts
13-Feb-20 20:11 33.577467 -118.024040 242 3414ft 158kts
13-Feb-20 20:12 33.556848 -118.071142 242 3889ft 158kts
13-Feb-20 20:13 33.537869 -118.114422 242 3907ft 141kts
13-Feb-20 20:14 33.519820 -118.155540 242 3908ft 138kts
13-Feb-20 20:15 33.501784 -118.196385 241 3908ft 138kts
13-Feb-20 20:16 33.485600 -118.233039 242 3905ft 108kts
13-Feb-20 20:17 33.472098 -118.263662 242 3908ft 101kts
13-Feb-20 20:18 33.458897 -118.293839 246 3648ft 107kts
13-Feb-20 20:19 33.447859 -118.328939 248 3058ft 114kts
13-Feb-20 20:20 33.435515 -118.363680 236 2530ft 112kts
13-Feb-20 20:21 33.417893 -118.393894 235 2056ft 103kts
13-Feb-20 20:22 33.405182 -118.415416 198 1545ft 25kts
13-Feb-20 20:23 33.403635 -118.415009 323 1545ft 0kts
13-Feb-20 20:24 33.403635 -118.415009 323 1545ft 0kts
13-Feb-20 20:25 33.403635 -118.415009 323 1545ft 0kts
13-Feb-20 20:26 33.403635 -118.415009 323 1545ft 0kts
13-Feb-20 20:27 33.403635 -118.415009 323 1545ft 0kts
13-Feb-20 20:28 33.403635 -118.415009 323 1545ft 0kts
13-Feb-20 20:29 33.403635 -118.415009 323 1545ft 0kts
13-Feb-20 20:30 33.403635 -118.415009 323 1545ft 0kts
13-Feb-20 20:31 33.403635 -118.415009 323 1545ft 0kts
13-Feb-20 20:32 33.403635 -118.415009 323 1545ft 0kts
13-Feb-20 20:33 33.403635 -118.415009 323 1545ft 0kts
13-Feb-20 20:34 33.403635 -118.415009 323 1545ft 0kts
13-Feb-20 20:35 33.403635 -118.415009 323 1545ft 0kts
13-Feb-20 20:36 33.403635 -118.415009 323 1545ft 0kts
13-Feb-20 20:37 33.403635 -118.415009 323 1545ft 0kts

Navigation Log

Ident Type
Flight plan parsing failed, navigation log unavailable